MDT,Max TemperatureF,Mean TemperatureF,Min TemperatureF,Max Dew PointF,MeanDew PointF,Min DewpointF,Max Humidity, Mean Humidity, Min Humidity, Max Sea Level PressureIn, Mean Sea Level PressureIn, Min Sea Level PressureIn, Max VisibilityMiles, Mean VisibilityMiles, Min VisibilityMiles, Max Wind SpeedMPH, Mean Wind SpeedMPH, Max Gust SpeedMPH,PrecipitationIn, CloudCover, Events, WindDirDegrees
2013-4-1,54,38,22,26,23,19,92,62,32,30.25,30.21,30.16,10,10,10,12,6,17,0.00,1,,37
2013-4-2,66,46,26,28,24,21,81,50,19,30.19,30.08,29.91,10,10,10,16,10,26,0.00,0,,99
2013-4-3,67,53,38,33,27,23,54,40,26,30.17,30.00,29.86,10,10,10,29,14,35,0.00,2,,3
2013-4-4,57,44,31,29,25,20,78,55,31,30.21,30.09,29.89,10,10,10,23,13,28,0.00,2,,85
2013-4-5,71,57,42,48,31,17,93,58,23,29.86,29.69,29.56,10,10,10,29,10,36,0.04,5,Rain,169
2013-4-6,67,52,37,41,35,28,89,57,24,29.80,29.75,29.70,10,10,10,20,9,24,0.01,3,Rain,310
2013-4-7,63,49,35,39,31,23,85,55,25,29.74,29.66,29.57,10,10,10,28,8,35,0.00,4,,326
2013-4-8,35,26,17,30,19,11,92,79,65,30.46,30.07,29.72,10,6,0,28,17,31,0.22,7,Fog-Snow,10
2013-4-9,30,23,15,16,12,9,74,62,50,30.60,30.52,30.46,10,10,5,13,6,16,T,3,Snow,3
2013-4-10,45,31,17,24,19,13,84,62,39,30.45,30.20,29.93,10,10,10,16,8,21,0.00,0,,156
2013-4-11,49,40,30,38,28,19,92,74,56,29.94,29.86,29.79,10,9,2,24,10,29,0.01,5,Rain,31
2013-4-12,48,39,30,36,31,22,96,67,38,30.07,29.95,29.88,10,7,0,23,10,28,0.20,6,Fog-Rain-Snow,304
2013-4-13,53,42,30,34,30,27,96,66,35,29.86,29.55,29.41,10,8,1,23,13,32,0.34,5,Rain-Snow,122
2013-4-14,33,28,23,32,24,20,92,87,81,30.01,29.71,29.49,6,1,0,22,14,26,0.14,8,Fog-Snow,18
2013-4-15,31,24,17,25,20,15,92,81,69,30.23,30.03,29.91,10,6,0,18,11,22,T,7,Fog-Snow,299
2013-4-16,31,24,16,25,20,14,92,81,69,30.40,30.27,30.12,10,6,1,12,5,13,T,8,Snow,317
2013-4-17,33,27,20,23,21,18,92,78,63,30.40,30.32,30.27,10,6,0,17,8,20,T,7,Fog-Snow,319
2013-4-18,47,32,16,33,22,13,92,67,41,30.35,30.21,30.06,10,10,10,22,8,31,T,2,,277
2013-4-19,50,41,32,33,31,28,89,71,53,30.07,29.97,29.83,10,10,10,15,7,17,0.01,7,Rain,96
2013-4-20,59,50,40,45,40,37,100,78,55,29.91,29.83,29.78,10,9,4,25,8,31,0.20,7,Rain-Thunderstorm,171
2013-4-21,45,38,30,40,29,21,92,73,54,30.32,30.13,29.91,10,6,0,25,13,33,0.08,8,Fog-Snow,341
2013-4-22,39,32,25,21,15,11,74,53,32,30.51,30.45,30.34,10,10,10,21,9,23,0.00,4,,353
2013-4-23,52,36,19,29,21,14,91,57,22,30.43,30.22,30.08,10,10,10,25,9,35,0.00,1,,247
2013-4-24,52,43,33,30,25,18,82,58,34,30.19,30.10,29.98,10,10,10,30,15,46,0.00,4,,297
2013-4-25,69,51,32,30,27,24,82,50,18,29.96,29.85,29.78,10,10,10,29,11,36,0.00,1,,232
2013-4-26,75,56,36,35,30,25,76,47,17,30.08,30.00,29.94,10,10,10,21,9,26,0.00,0,,210
2013-4-27,81,63,44,37,31,26,65,40,14,29.97,29.86,29.73,10,10,10,31,12,39,0.00,0,,255
2013-4-28,67,57,47,41,34,28,66,45,24,29.92,29.84,29.75,10,10,10,24,10,32,T,3,Rain,288
2013-4-29,65,54,42,42,36,23,76,54,31,29.73,29.58,29.47,10,10,10,40,13,47,0.02,5,,252
2013-4-30,49,39,28,28,24,17,75,55,34,30.32,29.94,29.65,10,10,10,29,18,39,0.00,4,,311